Time;durP1;ratioP1;P1;durP2;ratioP2;P2;SDS_P1;SDS_P2;PMS_P1;PMS_P2;Temp;Humidity;BMP_temperature;BMP_pressure;BME280_temperature;BME280_humidity;BME280_pressure;Samples;Min_cycle;Max_cycle;Signal;HPM_P1;HPM_P2
2022/06/28 00:00:21;;;;;;;;;1.00;1.00;;;;;18.31;100.00;101658.13;4993061;28;45855;-75
2022/06/28 00:02:54;;;;;;;;;1.00;1.00;;;;;18.17;100.00;101639.97;4993296;28;46238;-76
2022/06/28 00:05:20;;;;;;;;;1.00;1.00;;;;;18.28;100.00;101669.72;4959946;28;45977;-78
2022/06/28 00:07:46;;;;;;;;;1.33;1.33;;;;;18.22;100.00;101653.16;4956781;28;45502;-78
2022/06/28 00:10:13;;;;;;;;;1.00;1.00;;;;;18.20;100.00;101656.16;4956821;28;45940;-79
2022/06/28 00:12:39;;;;;;;;;1.00;1.00;;;;;18.17;100.00;101645.53;4962144;28;45841;-78
2022/06/28 00:17:52;;;;;;;;;1.33;0.00;;;;;18.21;100.00;101651.47;4973863;28;45976;-75
2022/06/28 00:20:17;;;;;;;;;2.00;1.00;;;;;18.18;100.00;101650.84;4955599;28;45520;-74
2022/06/28 00:22:43;;;;;;;;;1.00;1.00;;;;;18.20;100.00;101649.78;4966865;28;46736;-76
2022/06/28 00:25:09;;;;;;;;;1.67;0.67;;;;;18.03;100.00;101628.25;4968622;28;45791;-75
2022/06/28 00:27:34;;;;;;;;;4.00;2.00;;;;;18.11;100.00;101644.59;4970813;28;45504;-78
2022/06/28 00:30:00;;;;;;;;;2.00;0.33;;;;;18.11;100.00;101652.91;4957108;28;47132;-76
2022/06/28 00:32:26;;;;;;;;;3.00;2.00;;;;;18.06;100.00;101649.16;4956628;28;48049;-78
2022/06/28 00:34:51;;;;;;;;;2.67;1.00;;;;;18.06;100.00;101641.66;4969717;28;45551;-76
2022/06/28 00:37:17;;;;;;;;;1.33;1.00;;;;;18.09;100.00;101649.50;4973280;28;45744;-79
2022/06/28 00:39:42;;;;;;;;;0.00;0.00;;;;;18.09;100.00;101646.72;4973886;28;45505;-78
2022/06/28 00:42:09;;;;;;;;;2.00;1.00;;;;;18.04;100.00;101642.97;4971211;28;45413;-78
2022/06/28 00:44:36;;;;;;;;;3.00;1.00;;;;;18.08;100.00;101649.75;4956700;28;45388;-77
2022/06/28 00:47:02;;;;;;;;;4.67;1.67;;;;;18.08;100.00;101645.03;4953426;28;45359;-77
2022/06/28 00:49:27;;;;;;;;;11.00;8.00;;;;;18.05;100.00;101642.72;4955162;28;46051;-74
2022/06/28 00:51:56;;;;;;;;;12.67;9.67;;;;;18.06;100.00;101644.44;4967791;28;45515;-75
2022/06/28 00:54:21;;;;;;;;;4.67;3.33;;;;;18.05;100.00;101648.28;4965571;28;45858;-74
2022/06/28 00:56:47;;;;;;;;;9.67;8.00;;;;;18.01;100.00;101641.53;4973348;28;45829;-78
2022/06/28 00:59:12;;;;;;;;;15.33;6.67;;;;;18.04;100.00;101645.75;4973200;28;45653;-77
2022/06/28 01:01:38;;;;;;;;;4.33;2.00;;;;;18.02;100.00;101643.22;4967207;28;46222;-78
2022/06/28 01:04:04;;;;;;;;;8.00;6.67;;;;;17.86;100.00;101627.19;4956646;28;45787;-76
2022/06/28 01:06:29;;;;;;;;;3.33;3.33;;;;;18.01;100.00;101652.63;4974065;28;45790;-77
2022/06/28 01:08:54;;;;;;;;;1.00;1.00;;;;;18.00;100.00;101648.16;4974627;28;45716;-75
2022/06/28 01:11:20;;;;;;;;;2.00;2.00;;;;;17.92;100.00;101637.38;4992320;28;46818;-74
2022/06/28 01:13:53;;;;;;;;;1.00;1.00;;;;;17.97;100.00;101640.31;4991740;28;45361;-75
2022/06/28 01:16:20;;;;;;;;;2.00;2.00;;;;;17.93;100.00;101644.63;4993581;28;45457;-78
2022/06/28 01:18:46;;;;;;;;;2.00;1.00;;;;;17.91;100.00;101652.34;4982133;28;45901;-77
2022/06/28 01:21:14;;;;;;;;;2.33;1.00;;;;;17.87;100.00;101651.09;4992509;28;45717;-77
2022/06/28 01:23:42;;;;;;;;;1.33;1.33;;;;;17.77;100.00;101635.88;4993373;28;45740;-76
2022/06/28 01:26:07;;;;;;;;;2.00;1.00;;;;;17.66;100.00;101622.78;4993828;28;45449;-77
2022/06/28 01:28:33;;;;;;;;;3.67;2.67;;;;;17.57;100.00;101611.16;4970261;28;46015;-77
2022/06/28 01:30:59;;;;;;;;;2.00;0.67;;;;;17.77;100.00;101641.41;4987806;28;46427;-78
2022/06/28 01:33:24;;;;;;;;;1.00;1.00;;;;;17.74;100.00;101647.44;4997014;28;45832;-76
2022/06/28 01:35:50;;;;;;;;;1.33;1.33;;;;;17.73;100.00;101654.06;4996095;28;45631;-78
2022/06/28 01:38:15;;;;;;;;;1.67;1.00;;;;;17.68;100.00;101642.81;4974270;28;47397;-77
2022/06/28 01:40:45;;;;;;;;;0.67;0.67;;;;;17.56;100.00;101630.81;4975218;28;47117;-80
2022/06/28 01:43:13;;;;;;;;;1.00;1.00;;;;;17.62;100.00;101641.84;4992254;28;45759;-79
2022/06/28 01:45:41;;;;;;;;;2.00;1.00;;;;;17.61;100.00;101653.16;4978289;28;45845;-77
2022/06/28 01:48:07;;;;;;;;;2.00;2.00;;;;;17.58;100.00;101656.41;4994370;28;45547;-78
2022/06/28 01:50:32;;;;;;;;;1.00;1.00;;;;;17.58;100.00;101648.09;5009352;28;46319;-76
2022/06/28 01:52:58;;;;;;;;;1.00;1.00;;;;;17.57;100.00;101651.94;4978996;28;45537;-76
2022/06/28 01:55:23;;;;;;;;;1.00;1.00;;;;;17.54;100.00;101650.47;4996362;28;45773;-76
2022/06/28 01:57:49;;;;;;;;;1.00;1.00;;;;;17.51;100.00;101648.16;4978482;28;46755;-78
2022/06/28 02:00:15;;;;;;;;;1.00;1.00;;;;;17.49;100.00;101649.50;5001053;28;45735;-77
2022/06/28 02:02:40;;;;;;;;;3.67;1.00;;;;;17.41;100.00;101642.31;4991425;28;45486;-77
2022/06/28 02:05:06;;;;;;;;;1.67;0.33;;;;;17.41;100.00;101642.31;4991590;28;45494;-77
2022/06/28 02:07:32;;;;;;;;;0.00;0.00;;;;;17.34;100.00;101633.25;4989873;28;45636;-77
2022/06/28 02:09:57;;;;;;;;;1.00;1.00;;;;;17.33;100.00;101634.31;4973456;28;45617;-78
2022/06/28 02:12:23;;;;;;;;;1.33;0.00;;;;;17.31;100.00;101633.72;4988387;28;45345;-80
2022/06/28 02:14:48;;;;;;;;;2.00;2.00;;;;;17.31;100.00;101642.88;4976920;28;45812;-78
2022/06/28 02:17:13;;;;;;;;;1.00;1.00;;;;;17.29;100.00;101639.50;4995480;28;45921;-76
2022/06/28 02:19:39;;;;;;;;;0.00;0.00;;;;;17.19;100.00;101628.94;4982867;28;46192;-77
2022/06/28 02:22:04;;;;;;;;;1.00;1.00;;;;;17.19;100.00;101634.47;4975545;28;45556;-77
2022/06/28 02:24:31;;;;;;;;;0.00;0.00;;;;;17.14;100.00;101639.88;4984904;28;45390;-77
2022/06/28 02:26:57;;;;;;;;;1.00;0.33;;;;;17.11;100.00;101626.47;4979758;28;45317;-76
2022/06/28 02:29:22;;;;;;;;;1.00;1.00;;;;;17.06;100.00;101638.25;4990721;28;45943;-77
2022/06/28 02:31:48;;;;;;;;;1.00;1.00;;;;;17.06;100.00;101635.47;4981557;28;45464;-77
2022/06/28 02:40:21;;;;;;;;;0.00;0.00;;;;;17.00;100.00;101625.31;4983388;28;45589;-79
2022/06/28 02:42:26;;;;;;;;;1.33;1.00;;;;;17.01;100.00;101632.56;4987813;28;45713;-77
2022/06/28 02:44:52;;;;;;;;;0.33;0.33;;;;;16.99;100.00;101640.25;4983376;28;45806;-76
2022/06/28 02:47:17;;;;;;;;;0.00;0.00;;;;;16.98;100.00;101637.72;4985488;28;45464;-76
2022/06/28 02:49:43;;;;;;;;;1.00;1.00;;;;;16.94;100.00;101634.53;5000178;28;45836;-76
2022/06/28 02:52:08;;;;;;;;;0.00;0.00;;;;;16.91;100.00;101633.06;4989231;28;45401;-78
2022/06/28 02:54:33;;;;;;;;;1.33;1.00;;;;;16.75;100.00;101617.00;4986947;28;46012;-77
2022/06/28 02:56:59;;;;;;;;;1.00;0.00;;;;;16.82;100.00;101628.03;4982565;28;45859;-77
2022/06/28 02:59:24;;;;;;;;;0.00;0.00;;;;;16.84;100.00;101642.50;4979124;28;45375;-77
2022/06/28 03:01:50;;;;;;;;;1.00;1.00;;;;;16.80;100.00;101639.34;4980288;28;45772;-77
2022/06/28 03:04:15;;;;;;;;;4.00;1.00;;;;;16.76;100.00;101640.88;4973309;28;45731;-76
2022/06/28 03:06:40;;;;;;;;;2.00;1.00;;;;;16.76;100.00;101649.19;4970118;28;45731;-76
2022/06/28 03:09:06;;;;;;;;;1.00;1.00;;;;;16.72;100.00;101643.28;4981402;28;45814;-77
2022/06/28 03:11:31;;;;;;;;;0.00;0.00;;;;;16.68;100.00;101639.25;4985533;28;45484;-77
2022/06/28 03:13:57;;;;;;;;;0.33;0.33;;;;;16.68;100.00;101646.72;4986256;28;45444;-76
2022/06/28 03:16:22;;;;;;;;;2.00;1.00;;;;;16.64;100.00;101639.94;4996110;28;45753;-76
2022/06/28 03:18:48;;;;;;;;;1.00;0.00;;;;;16.63;100.00;101643.78;4988051;28;45468;-77
2022/06/28 03:21:13;;;;;;;;;0.00;0.00;;;;;16.61;100.00;101649.53;4983363;28;45524;-78
2022/06/28 03:23:39;;;;;;;;;2.00;0.00;;;;;16.59;100.00;101629.53;4984064;28;45500;-79
2022/06/28 03:26:04;;;;;;;;;2.00;1.00;;;;;16.58;100.00;101639.75;4980892;28;47019;-76
2022/06/28 03:28:29;;;;;;;;;0.00;0.00;;;;;16.55;100.00;101633.84;4976968;28;46680;-77
2022/06/28 03:30:55;;;;;;;;;1.00;1.00;;;;;16.52;100.00;101635.13;4981062;28;45800;-75
2022/06/28 03:33:20;;;;;;;;;0.00;0.00;;;;;16.56;100.00;101641.09;4975441;28;45600;-77
2022/06/28 03:35:46;;;;;;;;;1.00;1.00;;;;;16.55;100.00;101631.06;4983739;28;45445;-76
2022/06/28 03:38:11;;;;;;;;;0.00;0.00;;;;;16.54;100.00;101643.22;4990089;28;46157;-73
2022/06/28 03:40:36;;;;;;;;;2.00;1.00;;;;;16.56;100.00;101652.16;4977213;28;45741;-75
2022/06/28 03:43:02;;;;;;;;;2.00;1.00;;;;;16.57;100.00;101645.53;4977344;28;45950;-73
2022/06/28 03:45:27;;;;;;;;;0.67;0.67;;;;;16.59;100.00;101654.47;4975374;28;45708;-73
2022/06/28 03:47:53;;;;;;;;;1.00;1.00;;;;;16.58;100.00;101655.53;4981460;28;45860;-73
2022/06/28 03:50:18;;;;;;;;;1.00;1.00;;;;;16.59;100.00;101648.94;4990842;28;45855;-74
2022/06/28 03:52:44;;;;;;;;;2.00;1.00;;;;;16.61;100.00;101655.09;4991039;28;45624;-73
2022/06/28 03:55:11;;;;;;;;;1.33;1.00;;;;;16.64;100.00;101654.63;4990679;28;45853;-74
2022/06/28 03:57:36;;;;;;;;;2.00;2.00;;;;;16.60;100.00;101631.22;4993442;28;45553;-81
2022/06/28 04:00:03;;;;;;;;;2.00;2.00;;;;;16.81;100.00;101656.81;4991947;28;45827;-75
2022/06/28 04:02:28;;;;;;;;;1.00;1.00;;;;;16.93;100.00;101649.47;4990445;28;45487;-74
2022/06/28 04:04:54;;;;;;;;;1.33;1.33;;;;;17.07;100.00;101636.34;4993973;28;45730;-78
2022/06/28 04:07:19;;;;;;;;;3.33;1.00;;;;;17.32;100.00;101641.81;4990937;28;46710;-76
2022/06/28 04:09:45;;;;;;;;;1.33;1.33;;;;;17.61;100.00;101642.06;4989999;28;45902;-75
2022/06/28 04:12:10;;;;;;;;;1.00;1.00;;;;;17.95;100.00;101639.72;4989878;28;45683;-74
2022/06/28 04:14:36;;;;;;;;;2.67;1.00;;;;;18.32;100.00;101637.63;4992411;28;45493;-77
2022/06/28 04:17:01;;;;;;;;;1.00;1.00;;;;;18.72;100.00;101630.50;4994232;28;45977;-75
2022/06/28 04:19:27;;;;;;;;;1.00;1.00;;;;;19.11;100.00;101630.88;4992390;28;45422;-75
2022/06/28 04:21:52;;;;;;;;;2.33;1.33;;;;;19.54;100.00;101625.94;4989859;28;45666;-75
2022/06/28 04:24:17;;;;;;;;;1.33;0.67;;;;;19.98;100.00;101622.59;4991973;28;45465;-75
2022/06/28 04:26:43;;;;;;;;;2.00;0.33;;;;;20.49;100.00;101615.09;4991752;28;46815;-77
2022/06/28 04:29:08;;;;;;;;;0.67;0.67;;;;;21.07;100.00;101614.88;4991637;28;45982;-75
2022/06/28 04:31:34;;;;;;;;;2.00;0.67;;;;;21.57;100.00;101611.06;4992098;28;45888;-74
2022/06/28 04:33:59;;;;;;;;;0.67;0.67;;;;;22.08;100.00;101618.28;4991049;28;45867;-76
2022/06/28 04:36:26;;;;;;;;;3.33;1.67;;;;;22.62;100.00;101609.81;4973239;28;46254;-75
2022/06/28 04:38:52;;;;;;;;;1.67;1.00;;;;;23.26;100.00;101608.78;4991653;28;45978;-75
2022/06/28 04:41:19;;;;;;;;;1.00;1.00;;;;;23.85;100.00;101611.47;4991020;28;45563;-75
2022/06/28 04:43:44;;;;;;;;;1.33;1.33;;;;;24.39;100.00;101616.59;4972528;28;45870;-76
2022/06/28 04:46:10;;;;;;;;;3.00;0.67;;;;;24.91;100.00;101610.91;4991195;28;45821;-77
2022/06/28 04:48:35;;;;;;;;;0.00;0.00;;;;;25.51;100.00;101614.66;4991503;28;45661;-76
2022/06/28 04:51:10;;;;;;;;;3.00;2.00;;;;;26.01;100.00;101602.56;4992537;28;45647;-76
2022/06/28 04:53:38;;;;;;;;;0.33;0.33;;;;;26.70;100.00;101605.34;4992847;28;45824;-77
2022/06/28 04:56:03;;;;;;;;;4.33;2.00;;;;;27.35;100.00;101623.75;4988808;28;48097;-77
2022/06/28 04:58:29;;;;;;;;;5.67;1.00;;;;;27.93;94.60;101626.31;4992530;28;45608;-79
2022/06/28 05:00:54;;;;;;;;;2.33;1.00;;;;;28.31;89.85;101620.66;4992008;28;46014;-80
2022/06/28 05:03:20;;;;;;;;;3.00;2.00;;;;;28.51;85.17;101624.28;4991692;28;45653;-81
2022/06/28 05:05:45;;;;;;;;;1.00;1.00;;;;;28.52;83.31;101609.84;4987017;28;46432;-80
2022/06/28 05:08:11;;;;;;;;;2.33;2.33;;;;;28.75;82.78;101617.69;4985869;28;45542;-79
2022/06/28 05:10:36;;;;;;;;;0.00;0.00;;;;;28.90;81.24;101608.91;4987155;28;45872;-79
2022/06/28 05:13:02;;;;;;;;;0.33;0.33;;;;;29.38;77.97;101627.44;4988981;28;45765;-79
2022/06/28 05:15:28;;;;;;;;;1.50;0.00;;;;;29.74;74.18;101620.97;4975495;28;46995;-81
2022/06/28 05:17:53;;;;;;;;;1.00;1.00;;;;;29.98;71.80;101614.25;4984597;28;45816;-80
2022/06/28 05:20:18;;;;;;;;;1.33;0.67;;;;;30.28;70.45;101613.44;4989577;28;45914;-80
2022/06/28 05:22:44;;;;;;;;;0.00;0.00;;;;;30.60;65.84;101634.19;4986685;28;45975;-81
2022/06/28 05:25:09;;;;;;;;;1.50;1.00;;;;;30.54;64.67;101627.00;4991405;28;46103;-80
2022/06/28 05:27:35;;;;;;;;;2.00;0.00;;;;;30.28;65.69;101630.44;5001555;28;45796;-79
2022/06/28 05:30:00;;;;;;;;;0.00;0.00;;;;;30.23;62.83;101610.78;4972668;28;45508;-81
2022/06/28 05:32:29;;;;;;;;;0.75;0.25;;;;;30.15;64.43;101617.22;4998817;28;45476;-83
2022/06/28 05:34:54;;;;;;;;;2.50;1.00;;;;;29.61;66.64;101622.69;4973060;28;47212;-84
2022/06/28 05:37:20;;;;;;;;;0.00;0.00;;;;;28.88;68.55;101616.84;4990772;28;45452;-84
2022/06/28 05:39:45;;;;;;;;;0.00;0.00;;;;;28.65;71.91;101633.66;4999344;28;46270;-81
2022/06/28 05:42:12;;;;;;;;;1.75;1.00;;;;;29.13;69.85;101615.47;5001891;28;45757;-83
2022/06/28 05:44:37;;;;;;;;;0.00;0.00;;;;;29.73;66.61;101625.81;4975433;28;45587;-81
2022/06/28 05:47:03;;;;;;;;;1.00;0.00;;;;;30.24;64.39;101617.25;4991503;28;45595;-79
2022/06/28 05:49:29;;;;;;;;;0.00;0.00;;;;;30.57;60.58;101619.81;4988654;28;46037;-77
2022/06/28 05:51:54;;;;;;;;;1.00;1.00;;;;;31.02;59.97;101618.91;4988304;28;45733;-76
2022/06/28 05:54:20;;;;;;;;;1.00;1.00;;;;;31.46;56.11;101619.88;4989473;28;46867;-79
2022/06/28 05:56:45;;;;;;;;;1.00;1.00;;;;;31.81;54.96;101609.47;4972216;28;45553;-81
2022/06/28 05:59:11;;;;;;;;;2.75;0.00;;;;;32.33;51.52;101616.28;4986448;28;45769;-81
2022/06/28 06:01:36;;;;;;;;;0.00;0.00;;;;;32.24;51.83;101595.59;4991053;28;46222;-80
2022/06/28 06:04:02;;;;;;;;;1.25;0.75;;;;;32.34;51.78;101598.91;4992723;28;46414;-80
2022/06/28 06:06:27;;;;;;;;;0.67;0.00;;;;;32.66;49.27;101615.72;4997136;28;45829;-80
2022/06/28 06:08:53;;;;;;;;;0.25;0.25;;;;;31.92;50.93;101611.94;4990067;28;45409;-82
2022/06/28 06:11:18;;;;;;;;;0.50;0.50;;;;;30.83;54.43;101610.66;4989159;28;45496;-80
2022/06/28 06:13:48;;;;;;;;;1.00;1.00;;;;;30.11;59.36;101616.19;4991486;28;46003;-79
2022/06/28 06:16:13;;;;;;;;;0.75;0.75;;;;;29.72;60.62;101618.47;4971918;28;45724;-79
2022/06/28 06:18:40;;;;;;;;;3.00;1.00;;;;;29.45;62.40;101590.25;4989970;28;45664;-77
2022/06/28 06:21:05;;;;;;;;;1.00;1.00;;;;;29.67;61.56;101603.63;4975212;28;45776;-77
2022/06/28 06:23:31;;;;;;;;;2.00;1.00;;;;;29.83;60.12;101598.47;4989686;28;45670;-79
2022/06/28 06:25:56;;;;;;;;;1.50;1.00;;;;;30.28;60.53;101585.16;4990947;28;45940;-81
2022/06/28 06:28:22;;;;;;;;;0.00;0.00;;;;;31.30;57.88;101599.66;4975345;28;45910;-80
2022/06/28 06:30:47;;;;;;;;;2.67;1.00;;;;;32.21;52.97;101606.44;4988236;28;45929;-80
2022/06/28 06:33:16;;;;;;;;;1.00;1.00;;;;;32.78;47.93;101606.50;4990824;28;46452;-82
2022/06/28 06:35:41;;;;;;;;;1.00;1.00;;;;;33.35;46.07;101605.25;4986479;28;45502;-82
2022/06/28 06:38:07;;;;;;;;;1.00;1.00;;;;;33.92;42.84;101607.53;4982805;28;45959;-81
2022/06/28 06:40:32;;;;;;;;;2.00;1.00;;;;;34.56;41.21;101587.47;4992322;28;45498;-83
2022/06/28 06:42:58;;;;;;;;;4.00;1.33;;;;;35.06;38.15;101589.19;4987408;28;46055;-78
2022/06/28 06:45:24;;;;;;;;;1.50;0.00;;;;;35.32;36.59;101582.31;4988685;28;45538;-82
2022/06/28 06:47:49;;;;;;;;;0.00;0.00;;;;;35.69;34.76;101591.63;5001054;28;45395;-78
2022/06/28 06:50:15;;;;;;;;;0.75;0.75;;;;;36.03;34.05;101580.81;4991760;28;45504;-80
2022/06/28 06:52:44;;;;;;;;;0.00;0.00;;;;;36.44;33.20;101589.34;4990692;28;45900;-77
2022/06/28 06:55:09;;;;;;;;;1.00;1.00;;;;;36.34;32.33;101592.72;4990072;28;45730;-79
2022/06/28 06:57:35;;;;;;;;;0.00;0.00;;;;;36.40;32.04;101580.66;4994354;28;45973;-78
2022/06/28 07:00:01;;;;;;;;;1.00;1.00;;;;;36.38;31.71;101553.63;4970931;28;46439;-77
2022/06/28 07:02:26;;;;;;;;;1.75;1.00;;;;;36.74;31.67;101575.44;4993591;28;45998;-78
2022/06/28 07:04:52;;;;;;;;;2.00;0.50;;;;;37.21;30.96;101573.72;4972010;28;45456;-78
2022/06/28 07:07:18;;;;;;;;;1.00;1.00;;;;;37.71;29.79;101573.22;4970228;28;45406;-78
2022/06/28 07:09:43;;;;;;;;;1.50;0.25;;;;;37.98;28.81;101577.09;4971258;28;45936;-78
2022/06/28 07:12:09;;;;;;;;;0.50;0.50;;;;;38.01;27.81;101582.06;4969522;28;45855;-78
2022/06/28 07:14:34;;;;;;;;;1.25;0.75;;;;;37.48;28.20;101559.66;4987819;28;45825;-78
2022/06/28 07:16:59;;;;;;;;;1.00;1.00;;;;;37.31;29.11;101563.78;4966835;28;45903;-79
2022/06/28 07:19:25;;;;;;;;;0.00;0.00;;;;;37.32;28.95;101565.41;4986642;28;45808;-78
2022/06/28 07:21:50;;;;;;;;;2.25;1.00;;;;;37.14;28.47;101538.41;4985728;28;45591;-77
2022/06/28 07:24:19;;;;;;;;;0.00;0.00;;;;;37.39;28.55;101550.47;4970755;28;45701;-78
2022/06/28 07:26:45;;;;;;;;;1.00;1.00;;;;;37.48;28.41;101548.22;4989469;28;45732;-77
2022/06/28 07:29:12;;;;;;;;;0.25;0.25;;;;;37.74;28.41;101541.88;4978721;28;45900;-78
2022/06/28 07:31:37;;;;;;;;;1.00;1.00;;;;;38.14;27.75;101540.59;4976316;28;47768;-79
2022/06/28 07:34:06;;;;;;;;;0.25;0.25;;;;;38.54;27.70;101540.53;4973401;28;45654;-77
2022/06/28 07:36:31;;;;;;;;;0.00;0.00;;;;;39.22;26.81;101529.34;4983002;28;45392;-81
2022/06/28 07:38:57;;;;;;;;;1.50;0.00;;;;;39.57;26.18;101520.44;4994205;28;45707;-81
2022/06/28 07:41:23;;;;;;;;;2.00;1.00;;;;;39.89;25.87;101517.09;4988696;28;46323;-81
2022/06/28 07:43:51;;;;;;;;;0.75;0.75;;;;;40.30;24.93;101499.06;4988351;28;45934;-81
2022/06/28 07:46:28;;;;;;;;;6.00;1.00;;;;;40.86;24.43;101528.75;5001254;28;45495;-83
2022/06/28 07:49:00;;;;;;;;;1.75;1.75;;;;;41.22;24.06;101524.06;5000675;28;45984;-80
2022/06/28 07:54:09;;;;;;;;;1.00;1.00;;;;;42.39;22.77;101524.06;4990693;28;45832;-81
2022/06/28 07:56:35;;;;;;;;;0.00;0.00;;;;;42.33;22.07;101502.66;4991479;28;45506;-80
2022/06/28 07:59:00;;;;;;;;;3.00;1.00;;;;;42.62;21.28;101494.84;4986142;28;45770;-82
2022/06/28 08:01:26;;;;;;;;;1.67;0.00;;;;;43.12;22.04;101493.97;4989002;28;46264;-80
2022/06/28 08:03:52;;;;;;;;;1.33;1.33;;;;;43.62;20.74;101492.94;4990211;28;45566;-80
2022/06/28 08:06:23;;;;;;;;;0.33;0.33;;;;;43.73;20.42;101505.28;4993296;28;45440;-81
2022/06/28 08:08:48;;;;;;;;;1.00;1.00;;;;;43.57;20.14;101496.28;4993966;28;45785;-82
2022/06/28 08:11:14;;;;;;;;;2.00;1.00;;;;;43.61;20.53;101505.72;4995385;28;46698;-82
2022/06/28 08:13:40;;;;;;;;;0.00;0.00;;;;;43.62;20.11;101504.50;4976085;28;45755;-81
2022/06/28 08:16:05;;;;;;;;;2.00;1.67;;;;;43.88;19.68;101482.91;4995398;28;45255;-81
2022/06/28 08:18:31;;;;;;;;;0.33;0.33;;;;;44.31;19.71;101492.53;5000802;28;45772;-80
2022/06/28 08:20:57;;;;;;;;;1.67;1.67;;;;;44.46;19.44;101493.25;4990776;28;45561;-81
2022/06/28 08:23:22;;;;;;;;;0.67;0.67;;;;;43.86;19.22;101485.41;4985779;28;45902;-81
2022/06/28 08:25:48;;;;;;;;;1.00;1.00;;;;;43.56;19.63;101478.09;4996363;28;45622;-80
2022/06/28 08:28:14;;;;;;;;;0.67;0.00;;;;;43.52;20.12;101482.25;4993573;28;46386;-79
2022/06/28 08:30:42;;;;;;;;;1.00;1.00;;;;;43.62;19.78;101480.56;4992688;28;45549;-77
2022/06/28 08:33:08;;;;;;;;;1.00;1.00;;;;;43.90;20.46;101477.53;4995502;28;45702;-79
2022/06/28 08:35:34;;;;;;;;;1.00;1.00;;;;;44.81;19.25;101468.13;4997868;28;45502;-80
2022/06/28 08:38:00;;;;;;;;;3.00;1.00;;;;;45.67;18.20;101478.66;4976654;28;46234;-80
2022/06/28 08:40:27;;;;;;;;;1.33;1.00;;;;;46.37;17.82;101474.31;4992998;28;45531;-79
2022/06/28 08:42:55;;;;;;;;;0.00;0.00;;;;;46.55;17.59;101470.25;4975661;28;45487;-80
2022/06/28 08:45:22;;;;;;;;;1.00;1.00;;;;;47.12;17.14;101443.03;4995227;28;45484;-79
2022/06/28 08:47:50;;;;;;;;;3.33;0.33;;;;;47.63;16.27;101468.91;4978793;28;47087;-81
2022/06/28 08:50:25;;;;;;;;;1.00;1.00;;;;;47.90;16.29;101457.06;4997016;28;45730;-78
2022/06/28 08:52:53;;;;;;;;;1.00;1.00;;;;;48.44;16.31;101449.13;4999107;28;45787;-80
2022/06/28 08:55:18;;;;;;;;;1.33;1.00;;;;;48.39;15.19;101446.72;4990065;28;45997;-79
2022/06/28 08:57:44;;;;;;;;;1.33;1.33;;;;;48.45;15.67;101447.00;4973770;28;46976;-80
2022/06/28 09:00:15;;;;;;;;;0.67;0.67;;;;;48.82;15.58;101427.28;4991398;28;45846;-79
2022/06/28 09:02:41;;;;;;;;;1.00;1.00;;;;;49.29;15.07;101436.28;4993237;28;45467;-80
2022/06/28 09:05:07;;;;;;;;;1.33;1.00;;;;;49.64;14.52;101430.63;4991650;28;45721;-80
2022/06/28 09:07:32;;;;;;;;;0.00;0.00;;;;;49.94;15.09;101419.66;4991086;28;45452;-81
2022/06/28 09:09:59;;;;;;;;;1.00;1.00;;;;;50.38;14.36;101432.78;4993823;28;47268;-79
2022/06/28 09:12:24;;;;;;;;;1.00;1.00;;;;;50.31;13.88;101411.31;4976167;28;45524;-80
2022/06/28 09:14:50;;;;;;;;;1.00;1.00;;;;;50.16;13.77;101418.94;4989587;28;45814;-81
2022/06/28 09:17:29;;;;;;;;;2.33;0.67;;;;;49.58;14.31;101414.19;4983526;28;45992;-79
2022/06/28 09:20:32;;;;;;;;;2.00;2.00;;;;;49.07;14.74;101406.97;4993749;28;46674;-85
2022/06/28 09:22:57;;;;;;;;;1.00;1.00;;;;;48.54;13.77;101398.53;4984435;28;45943;-79
2022/06/28 09:25:29;;;;;;;;;1.00;1.00;;;;;48.31;14.62;101398.72;4978059;28;45190;-80
2022/06/28 09:27:57;;;;;;;;;1.00;1.00;;;;;48.20;14.47;101394.00;4991161;28;45490;-81
2022/06/28 09:30:25;;;;;;;;;0.67;0.67;;;;;48.67;15.00;101391.94;4979107;28;45562;-80
2022/06/28 09:32:51;;;;;;;;;1.00;1.00;;;;;48.87;14.03;101383.03;4997933;28;45384;-81
2022/06/28 09:35:17;;;;;;;;;1.00;1.00;;;;;48.98;13.86;101379.81;4988111;28;45532;-79
2022/06/28 09:37:56;;;;;;;;;0.67;0.67;;;;;49.29;14.08;101380.13;4994832;28;45924;-80
2022/06/28 09:40:26;;;;;;;;;1.00;1.00;;;;;49.44;13.37;101380.47;4995371;28;46118;-81
2022/06/28 09:43:12;;;;;;;;;1.33;1.00;;;;;49.76;12.68;101359.00;4996171;28;45907;-80
2022/06/28 09:45:41;;;;;;;;;0.00;0.00;;;;;50.31;12.36;101379.22;4995187;28;45447;-81
2022/06/28 09:48:08;;;;;;;;;1.00;1.00;;;;;49.85;13.19;101355.38;4977922;28;46223;-78
2022/06/28 09:50:36;;;;;;;;;0.33;0.33;;;;;50.06;13.05;101355.94;4995976;28;46267;-81
2022/06/28 09:53:04;;;;;;;;;2.00;1.00;;;;;50.15;13.17;101371.41;5001454;28;45921;-79
2022/06/28 09:55:33;;;;;;;;;0.67;0.67;;;;;50.05;13.31;101371.81;4998666;28;45422;-80
2022/06/28 09:58:00;;;;;;;;;0.00;0.00;;;;;50.40;13.21;101328.06;4979109;28;45752;-78
2022/06/28 10:00:27;;;;;;;;;0.00;0.00;;;;;51.12;12.07;101349.47;4987495;28;46138;-80
2022/06/28 10:02:58;;;;;;;;;1.00;1.00;;;;;51.13;12.18;101356.97;4992138;28;45448;-80
2022/06/28 10:05:28;;;;;;;;;1.00;1.00;;;;;50.12;12.93;101345.28;4997096;28;45742;-79
2022/06/28 10:07:54;;;;;;;;;0.00;0.00;;;;;49.55;13.39;101339.34;4996944;28;46304;-80
2022/06/28 10:10:24;;;;;;;;;0.67;0.67;;;;;49.46;12.51;101352.47;4979114;28;45762;-80
2022/06/28 10:15:43;;;;;;;;;0.33;0.33;;;;;49.86;12.60;101342.44;4998304;28;45369;-81
2022/06/28 10:18:11;;;;;;;;;2.00;1.00;;;;;50.39;13.13;101343.94;4995821;28;45790;-80
2022/06/28 10:20:38;;;;;;;;;2.00;0.67;;;;;50.56;12.34;101341.63;4992642;28;45665;-81
2022/06/28 10:23:27;;;;;;;;;1.00;1.00;;;;;50.98;11.67;101338.34;4997833;28;45832;-82
2022/06/28 10:26:02;;;;;;;;;1.00;1.00;;;;;51.17;11.61;101327.56;4993819;28;45823;-78
2022/06/28 10:28:34;;;;;;;;;1.00;1.00;;;;;50.63;12.32;101315.09;4985782;28;45811;-79
2022/06/28 10:31:24;;;;;;;;;1.00;1.00;;;;;50.77;12.49;101331.22;4992023;28;47573;-79
2022/06/28 10:33:56;;;;;;;;;0.00;0.00;;;;;50.73;11.73;101328.47;4989412;28;45937;-81
2022/06/28 10:36:26;;;;;;;;;1.33;1.00;;;;;50.47;12.02;101316.91;4992276;28;46248;-80
2022/06/28 10:39:02;;;;;;;;;0.00;0.00;;;;;50.57;12.25;101323.63;4989835;28;45730;-78
2022/06/28 10:41:52;;;;;;;;;0.00;0.00;;;;;49.82;13.11;101309.66;4983558;28;45851;-78
2022/06/28 10:44:25;;;;;;;;;1.00;1.00;;;;;50.24;12.00;101306.47;4988455;28;45689;-83
2022/06/28 10:47:01;;;;;;;;;0.00;0.00;;;;;50.24;11.93;101309.41;4992843;28;45845;-79
2022/06/28 10:49:52;;;;;;;;;1.00;1.00;;;;;50.25;12.21;101299.41;4994622;28;45937;-79
2022/06/28 10:52:35;;;;;;;;;1.00;1.00;;;;;50.10;12.69;101298.28;4978127;28;47962;-78
2022/06/28 10:55:03;;;;;;;;;1.00;1.00;;;;;49.88;11.72;101296.09;4991774;28;45771;-77
2022/06/28 10:57:36;;;;;;;;;0.00;0.00;;;;;49.68;12.47;101283.91;4988145;28;45866;-75
2022/06/28 11:00:07;;;;;;;;;1.00;1.00;;;;;49.54;11.50;101280.19;4988606;28;46295;-77
2022/06/28 11:02:51;;;;;;;;;0.33;0.33;;;;;49.53;12.26;101289.38;4979246;28;47576;-76
2022/06/28 11:05:23;;;;;;;;;0.00;0.00;;;;;49.29;12.40;101293.50;4993545;28;45784;-77
2022/06/28 11:08:02;;;;;;;;;0.00;0.00;;;;;49.09;12.21;101296.66;4995522;28;46189;-75
2022/06/28 11:10:29;;;;;;;;;1.00;1.00;;;;;48.82;12.41;101288.34;4988457;28;46031;-76
2022/06/28 11:13:40;;;;;;;;;1.00;1.00;;;;;47.97;12.57;101281.59;4996087;28;45513;-77
2022/06/28 11:16:09;;;;;;;;;1.00;1.00;;;;;47.51;13.41;101275.72;4977212;28;45552;-78
2022/06/28 11:18:35;;;;;;;;;1.00;1.00;;;;;47.14;13.17;101269.13;4992972;28;45549;-75
2022/06/28 11:21:00;;;;;;;;;0.67;0.00;;;;;46.47;12.99;101270.19;4990529;28;45444;-77
2022/06/28 11:23:31;;;;;;;;;2.00;0.00;;;;;45.57;14.38;101263.13;4992229;28;45987;-76
2022/06/28 11:28:56;;;;;;;;;0.00;0.00;;;;;42.28;16.83;101273.25;4993240;28;45534;-76
2022/06/28 11:31:22;;;;;;;;;4.00;1.00;;;;;41.27;16.73;101255.97;4973579;28;45811;-78
2022/06/28 11:33:48;;;;;;;;;1.67;0.67;;;;;40.41;17.48;101264.28;4994580;28;45690;-76
2022/06/28 11:36:30;;;;;;;;;1.00;1.00;;;;;39.45;17.94;101263.16;4974277;28;45516;-77
2022/06/28 11:39:30;;;;;;;;;1.00;1.00;;;;;38.34;18.71;101265.47;4991366;28;45863;-75